Terminal Aerodrome Forecast
Issued by NWS

Home | Current Version | Previous Version | Text Only | Print | Product List | Glossary On
Versions: 1 2 3 4 5 6 7 8 9 10 11 12 13 14 15 16 17 18 19 20 21 22 23 24
000
FTUS46 KOTX 221736
TAFMWH
TAF
KMWH 221736Z 2218/2318 15012KT P6SM -SHRA OVC060
     FM222100 19010G18KT P6SM -RA SCT025 OVC050
      TEMPO 2302/2306 5SM RA BR BKN025 OVC040
     FM231000 20010KT P6SM VCSH SCT030 OVC060=

USA.gov is the U.S. government's official web portal to all federal, state and local government web resources and services.